Time;durP1;ratioP1;P1;durP2;ratioP2;P2;SDS_P1;SDS_P2;PMS_P1;PMS_P2;Temp;Humidity;BMP_temperature;BMP_pressure;BME280_temperature;BME280_humidity;BME280_pressure;Samples;Min_cycle;Max_cycle;Signal;HPM_P1;HPM_P2
2023/04/03 00:00:01;;;;;;;3.43;3.23;;;;;;;;;;5089706;28;20350;-92
2023/04/03 00:02:28;;;;;;;4.03;3.13;;;;;;;;;;5094947;28;20238;-92
2023/04/03 00:04:55;;;;;;;3.30;3.00;;;;;;;;;;5095368;28;20220;-92
2023/04/03 00:07:23;;;;;;;3.83;3.53;;;;;;;;;;5085571;28;20240;-92
2023/04/03 00:09:50;;;;;;;3.60;3.30;;;;;;;;;;5074900;28;20212;-92
2023/04/03 00:12:17;;;;;;;3.53;3.23;;;;;;;;;;5074530;28;20247;-92
2023/04/03 00:14:44;;;;;;;4.10;3.23;;;;;;;;;;5074846;28;20240;-92
2023/04/03 00:17:11;;;;;;;3.70;3.50;;;;;;;;;;5074334;28;20718;-92
2023/04/03 00:19:38;;;;;;;4.40;3.40;;;;;;;;;;5075940;28;20211;-92
2023/04/03 00:22:05;;;;;;;4.43;3.40;;;;;;;;;;5074244;28;20247;-92
2023/04/03 00:24:34;;;;;;;4.00;3.70;;;;;;;;;;5074469;28;20331;-92
2023/04/03 00:27:01;;;;;;;4.57;3.37;;;;;;;;;;5083028;28;20292;-92
2023/04/03 00:29:28;;;;;;;4.30;3.90;;;;;;;;;;5095129;28;20205;-92
2023/04/03 00:31:55;;;;;;;3.97;3.67;;;;;;;;;;5094222;28;20292;-92
2023/04/03 00:34:22;;;;;;;4.13;3.30;;;;;;;;;;5094427;28;20235;-92
2023/04/03 00:36:51;;;;;;;3.63;3.33;;;;;;;;;;5094166;28;20242;-92
2023/04/03 00:39:18;;;;;;;5.03;3.50;;;;;;;;;;5089606;28;20276;-92
2023/04/03 00:41:46;;;;;;;4.50;3.07;;;;;;;;;;5093913;28;20228;-92
2023/04/03 00:44:24;;;;;;;4.03;3.67;;;;;;;;;;5094234;28;20231;-92
2023/04/03 00:46:51;;;;;;;4.60;3.67;;;;;;;;;;5094094;28;20236;-92
2023/04/03 00:49:18;;;;;;;4.43;3.43;;;;;;;;;;5094165;28;20211;-92
2023/04/03 00:51:45;;;;;;;3.33;3.03;;;;;;;;;;5093655;28;20230;-92
2023/04/03 00:54:13;;;;;;;3.60;3.33;;;;;;;;;;5083809;28;20225;-92
2023/04/03 00:56:40;;;;;;;4.10;3.57;;;;;;;;;;5074134;28;20235;-92
2023/04/03 00:59:11;;;;;;;3.60;3.30;;;;;;;;;;5074549;28;20195;-92
2023/04/03 01:01:39;;;;;;;3.73;3.43;;;;;;;;;;5074858;28;20233;-92
2023/04/03 01:04:07;;;;;;;6.77;3.50;;;;;;;;;;5074366;28;20278;-92
2023/04/03 01:06:38;;;;;;;3.80;3.43;;;;;;;;;;5074067;28;20231;-92
2023/04/03 01:09:06;;;;;;;4.60;3.60;;;;;;;;;;5074233;28;20251;-92
2023/04/03 01:11:33;;;;;;;6.53;3.80;;;;;;;;;;5073729;28;20257;-92
2023/04/03 01:14:01;;;;;;;3.80;3.50;;;;;;;;;;5074566;28;20236;-92
2023/04/03 01:16:31;;;;;;;4.00;3.70;;;;;;;;;;5073674;28;20321;-92
2023/04/03 01:18:59;;;;;;;7.83;3.77;;;;;;;;;;5074061;28;20201;-92
2023/04/03 01:21:38;;;;;;;3.73;3.40;;;;;;;;;;5073780;28;20681;-92
2023/04/03 01:24:10;;;;;;;4.67;3.47;;;;;;;;;;5074293;28;20230;-92
2023/04/03 01:26:37;;;;;;;4.00;3.60;;;;;;;;;;5073910;28;20236;-92
2023/04/03 01:29:05;;;;;;;3.60;3.40;;;;;;;;;;5074354;28;20214;-92
2023/04/03 01:31:34;;;;;;;3.70;3.40;;;;;;;;;;5073446;28;20230;-92
2023/04/03 01:34:03;;;;;;;4.23;3.50;;;;;;;;;;5073926;28;20318;-92
2023/04/03 01:36:31;;;;;;;3.90;3.50;;;;;;;;;;5073079;28;20235;-92
2023/04/03 01:38:59;;;;;;;3.90;3.50;;;;;;;;;;5073753;28;20202;-92
2023/04/03 01:41:27;;;;;;;4.23;3.83;;;;;;;;;;5073461;28;20229;-92
2023/04/03 01:43:54;;;;;;;4.27;3.90;;;;;;;;;;5074082;28;20224;-92
2023/04/03 01:46:21;;;;;;;4.83;3.57;;;;;;;;;;5093080;28;20597;-92
2023/04/03 01:48:48;;;;;;;3.70;3.40;;;;;;;;;;5093894;28;20657;-92
2023/04/03 01:51:17;;;;;;;3.63;3.40;;;;;;;;;;5093184;28;20260;-92
2023/04/03 01:53:44;;;;;;;9.10;4.50;;;;;;;;;;5088446;28;20210;-91
2023/04/03 01:56:11;;;;;;;4.20;3.80;;;;;;;;;;5073095;28;20216;-92
2023/04/03 01:58:38;;;;;;;3.80;3.50;;;;;;;;;;5077179;28;20202;-92
2023/04/03 02:01:05;;;;;;;5.63;3.83;;;;;;;;;;5092907;28;20676;-91
2023/04/03 02:03:33;;;;;;;4.30;3.40;;;;;;;;;;5095162;28;20200;-92
2023/04/03 02:06:00;;;;;;;3.97;3.57;;;;;;;;;;5096704;28;20196;-92
2023/04/03 02:08:28;;;;;;;4.67;4.10;;;;;;;;;;5097483;28;20197;-92
2023/04/03 02:10:55;;;;;;;5.13;4.13;;;;;;;;;;5097167;28;20205;-92
2023/04/03 02:13:22;;;;;;;4.17;3.60;;;;;;;;;;5097502;28;20312;-92
2023/04/03 02:15:51;;;;;;;4.67;3.67;;;;;;;;;;5097177;28;20220;-92
2023/04/03 02:18:18;;;;;;;4.27;3.87;;;;;;;;;;5096772;28;20220;-92
2023/04/03 02:20:45;;;;;;;6.27;3.77;;;;;;;;;;5096977;28;20198;-92
2023/04/03 02:23:12;;;;;;;4.80;3.83;;;;;;;;;;5096344;28;20719;-92
2023/04/03 02:25:40;;;;;;;3.80;3.50;;;;;;;;;;5096792;28;20230;-92
2023/04/03 02:28:07;;;;;;;4.00;3.53;;;;;;;;;;5096619;28;20620;-92
2023/04/03 02:30:35;;;;;;;3.90;3.60;;;;;;;;;;5096959;28;20666;-92
2023/04/03 02:33:02;;;;;;;4.07;3.77;;;;;;;;;;5096786;28;20245;-92
2023/04/03 02:35:29;;;;;;;4.00;3.70;;;;;;;;;;5096299;28;20224;-92
2023/04/03 02:37:56;;;;;;;4.03;3.63;;;;;;;;;;5096489;28;20655;-92
2023/04/03 02:40:23;;;;;;;4.17;3.87;;;;;;;;;;5096820;28;20231;-91
2023/04/03 02:42:51;;;;;;;4.30;3.93;;;;;;;;;;5095997;28;20237;-92
2023/04/03 02:45:18;;;;;;;3.37;3.07;;;;;;;;;;5096774;28;20221;-92
2023/04/03 02:47:45;;;;;;;4.00;3.70;;;;;;;;;;5084663;28;20229;-92
2023/04/03 02:50:12;;;;;;;5.43;3.47;;;;;;;;;;5076484;28;20208;-92
2023/04/03 02:52:39;;;;;;;4.23;3.77;;;;;;;;;;5075865;28;20639;-92
2023/04/03 02:55:07;;;;;;;4.50;4.10;;;;;;;;;;5092451;28;20584;-92
2023/04/03 02:57:35;;;;;;;4.37;3.80;;;;;;;;;;5076008;28;20911;-92
2023/04/03 03:00:03;;;;;;;4.23;3.87;;;;;;;;;;5076136;28;20205;-92
2023/04/03 03:02:30;;;;;;;6.10;3.60;;;;;;;;;;5075525;28;20244;-92
2023/04/03 03:04:57;;;;;;;4.00;3.60;;;;;;;;;;5075930;28;20232;-91
2023/04/03 03:07:24;;;;;;;3.97;3.67;;;;;;;;;;5075388;28;20716;-92
2023/04/03 03:09:51;;;;;;;4.03;3.73;;;;;;;;;;5076959;28;20217;-92
2023/04/03 03:12:21;;;;;;;4.37;3.97;;;;;;;;;;5095387;28;20600;-92
2023/04/03 03:14:48;;;;;;;3.90;3.60;;;;;;;;;;5092529;28;20217;-92
2023/04/03 03:17:16;;;;;;;4.40;4.00;;;;;;;;;;5077528;28;20240;-85
2023/04/03 03:19:43;;;;;;;4.20;3.90;;;;;;;;;;5094802;28;20197;-86
2023/04/03 03:22:10;;;;;;;6.00;4.00;;;;;;;;;;5081404;28;20716;-86
2023/04/03 03:24:37;;;;;;;4.13;3.83;;;;;;;;;;5094890;28;20217;-85
2023/04/03 03:27:05;;;;;;;5.37;3.90;;;;;;;;;;5094424;28;20228;-86
2023/04/03 03:29:32;;;;;;;5.87;3.83;;;;;;;;;;5077924;28;20202;-86
2023/04/03 03:31:59;;;;;;;4.37;3.93;;;;;;;;;;5073343;28;20231;-85
2023/04/03 03:34:28;;;;;;;5.73;4.13;;;;;;;;;;5075410;28;20227;-85
2023/04/03 03:36:55;;;;;;;4.30;4.00;;;;;;;;;;5073724;28;20237;-85
2023/04/03 03:39:22;;;;;;;6.30;4.50;;;;;;;;;;5094343;28;20209;-85
2023/04/03 03:41:49;;;;;;;6.10;5.00;;;;;;;;;;5093834;28;20224;-85
2023/04/03 03:44:16;;;;;;;4.30;3.90;;;;;;;;;;5075269;28;20279;-85
2023/04/03 03:46:43;;;;;;;4.60;4.20;;;;;;;;;;5092293;28;20237;-85
2023/04/03 03:49:11;;;;;;;8.03;4.60;;;;;;;;;;5094455;28;20220;-84
2023/04/03 03:51:39;;;;;;;4.50;4.10;;;;;;;;;;5093635;28;20232;-85
2023/04/03 03:54:06;;;;;;;4.47;4.07;;;;;;;;;;5094304;28;20224;-85
2023/04/03 03:56:34;;;;;;;4.30;3.90;;;;;;;;;;5093656;28;20240;-85
2023/04/03 03:59:01;;;;;;;4.27;3.97;;;;;;;;;;5094332;28;20211;-85
2023/04/03 04:01:28;;;;;;;4.57;4.17;;;;;;;;;;5093491;28;20240;-85
2023/04/03 04:03:55;;;;;;;4.10;3.80;;;;;;;;;;5088290;28;20312;-85
2023/04/03 04:06:22;;;;;;;4.57;4.10;;;;;;;;;;5085437;28;20259;-85
2023/04/03 04:08:51;;;;;;;5.70;4.33;;;;;;;;;;5094008;28;20204;-86
2023/04/03 04:11:18;;;;;;;7.53;3.53;;;;;;;;;;5093521;28;20251;-86
2023/04/03 04:13:46;;;;;;;3.97;3.63;;;;;;;;;;5094219;28;20267;-86
2023/04/03 04:16:13;;;;;;;4.37;3.63;;;;;;;;;;5089508;28;20244;-86
2023/04/03 04:18:40;;;;;;;4.57;3.67;;;;;;;;;;5073644;28;20562;-86
2023/04/03 04:21:07;;;;;;;5.97;3.10;;;;;;;;;;5072930;28;20193;-86
2023/04/03 04:23:34;;;;;;;3.53;3.20;;;;;;;;;;5073665;28;20210;-85
2023/04/03 04:26:02;;;;;;;5.17;3.37;;;;;;;;;;5072660;28;20209;-85
2023/04/03 04:28:29;;;;;;;3.80;3.43;;;;;;;;;;5073208;28;20201;-85
2023/04/03 04:30:56;;;;;;;6.07;3.57;;;;;;;;;;5073289;28;20213;-86
2023/04/03 04:33:23;;;;;;;5.33;3.20;;;;;;;;;;5073411;28;20209;-85
2023/04/03 04:35:51;;;;;;;5.00;3.03;;;;;;;;;;5073385;28;20225;-85
2023/04/03 04:38:18;;;;;;;5.60;3.20;;;;;;;;;;5073386;28;20250;-85
2023/04/03 04:40:45;;;;;;;6.07;3.53;;;;;;;;;;5073382;28;20208;-85
2023/04/03 04:43:14;;;;;;;3.47;3.17;;;;;;;;;;5072422;28;20644;-86
2023/04/03 04:45:41;;;;;;;5.27;3.00;;;;;;;;;;5073034;28;20710;-86
2023/04/03 04:48:08;;;;;;;5.93;3.23;;;;;;;;;;5072673;28;20719;-85
2023/04/03 04:50:35;;;;;;;4.23;2.93;;;;;;;;;;5073166;28;20197;-86
2023/04/03 04:53:02;;;;;;;4.80;3.07;;;;;;;;;;5072510;28;20247;-86
2023/04/03 04:55:29;;;;;;;6.93;3.23;;;;;;;;;;5073189;28;20233;-86
2023/04/03 04:57:56;;;;;;;4.23;3.20;;;;;;;;;;5072651;28;20278;-85
2023/04/03 05:00:25;;;;;;;3.27;2.83;;;;;;;;;;5073054;28;20214;-86
2023/04/03 05:02:52;;;;;;;5.03;3.03;;;;;;;;;;5085155;28;20229;-86
2023/04/03 05:05:19;;;;;;;4.57;3.00;;;;;;;;;;5076994;28;20717;-86
2023/04/03 05:07:46;;;;;;;4.87;3.10;;;;;;;;;;5072608;28;20318;-86
2023/04/03 05:10:13;;;;;;;3.73;3.23;;;;;;;;;;5073575;28;20201;-86
2023/04/03 05:12:40;;;;;;;4.53;2.90;;;;;;;;;;5072913;28;20721;-87
2023/04/03 05:15:08;;;;;;;6.07;2.80;;;;;;;;;;5079485;28;20216;-87
2023/04/03 05:17:36;;;;;;;3.13;2.93;;;;;;;;;;5084705;28;20235;-86
2023/04/03 05:20:04;;;;;;;3.50;3.03;;;;;;;;;;5073518;28;20220;-87
2023/04/03 05:22:31;;;;;;;4.70;2.60;;;;;;;;;;5076850;28;20224;-86
2023/04/03 05:24:59;;;;;;;7.13;2.87;;;;;;;;;;5093251;28;20222;-86
2023/04/03 05:27:27;;;;;;;3.87;2.90;;;;;;;;;;5092648;28;20648;-87
2023/04/03 05:29:55;;;;;;;4.13;2.90;;;;;;;;;;5093657;28;20215;-87
2023/04/03 05:32:22;;;;;;;3.30;2.80;;;;;;;;;;5092711;28;20598;-87
2023/04/03 05:34:50;;;;;;;7.07;3.77;;;;;;;;;;5093483;28;20239;-88
2023/04/03 05:37:17;;;;;;;3.10;2.90;;;;;;;;;;5093722;28;20242;-89
2023/04/03 05:39:45;;;;;;;5.93;3.10;;;;;;;;;;5092566;28;20215;-90
2023/04/03 05:42:12;;;;;;;6.70;3.07;;;;;;;;;;5072601;28;20709;-90
2023/04/03 05:44:39;;;;;;;3.57;3.20;;;;;;;;;;5073756;28;20225;-90
2023/04/03 05:47:08;;;;;;;4.73;3.17;;;;;;;;;;5073233;28;20233;-90
2023/04/03 05:49:35;;;;;;;3.67;2.97;;;;;;;;;;5073842;28;20214;-90
2023/04/03 05:52:13;;;;;;;3.13;2.93;;;;;;;;;;5073256;28;20236;-89
2023/04/03 05:54:41;;;;;;;4.47;3.27;;;;;;;;;;5074917;28;20227;-88
2023/04/03 05:57:23;;;;;;;3.97;3.07;;;;;;;;;;5074175;28;20237;-90
2023/04/03 05:59:50;;;;;;;4.57;3.07;;;;;;;;;;5074725;28;20207;-89
2023/04/03 06:02:18;;;;;;;5.43;3.27;;;;;;;;;;5073182;28;20263;-91
2023/04/03 06:04:46;;;;;;;4.67;2.77;;;;;;;;;;5074910;28;20214;-91
2023/04/03 06:07:13;;;;;;;3.73;3.00;;;;;;;;;;5073285;28;20230;-88
2023/04/03 06:09:42;;;;;;;3.10;2.80;;;;;;;;;;5073773;28;20220;-91
2023/04/03 06:12:09;;;;;;;5.77;3.17;;;;;;;;;;5073207;28;20229;-91
2023/04/03 06:14:36;;;;;;;4.80;3.13;;;;;;;;;;5073467;28;20256;-91
2023/04/03 06:17:04;;;;;;;3.80;2.70;;;;;;;;;;5072544;28;20244;-90
2023/04/03 06:19:31;;;;;;;5.10;2.77;;;;;;;;;;5073540;28;20209;-91
2023/04/03 06:21:58;;;;;;;3.90;3.07;;;;;;;;;;5072356;28;20233;-91
2023/04/03 06:24:26;;;;;;;3.17;2.57;;;;;;;;;;5074504;28;20225;-92
2023/04/03 06:26:54;;;;;;;3.00;2.80;;;;;;;;;;5074242;28;20232;-92
2023/04/03 06:29:21;;;;;;;3.63;2.80;;;;;;;;;;5074018;28;20207;-92
2023/04/03 06:31:48;;;;;;;8.57;2.80;;;;;;;;;;5073556;28;20221;-89
2023/04/03 06:34:16;;;;;;;3.27;2.67;;;;;;;;;;5073904;28;20232;-93
2023/04/03 06:36:56;;;;;;;4.37;3.30;;;;;;;;;;5074138;28;20621;-93
2023/04/03 06:39:27;;;;;;;4.20;2.97;;;;;;;;;;5074463;28;20216;-93
2023/04/03 06:41:55;;;;;;;3.50;3.00;;;;;;;;;;5076842;28;20239;-92
2023/04/03 06:44:22;;;;;;;3.73;2.73;;;;;;;;;;5076768;28;20222;-93
2023/04/03 06:46:51;;;;;;;4.87;2.93;;;;;;;;;;5073759;28;20696;-92
2023/04/03 06:49:18;;;;;;;4.90;3.30;;;;;;;;;;5074227;28;20209;-92
2023/04/03 06:51:45;;;;;;;3.20;2.60;;;;;;;;;;5077177;28;20236;-93
2023/04/03 06:54:12;;;;;;;3.30;3.00;;;;;;;;;;5077834;28;20225;-91
2023/04/03 06:56:39;;;;;;;4.10;2.63;;;;;;;;;;5076496;28;20237;-92
2023/04/03 06:59:08;;;;;;;3.10;2.90;;;;;;;;;;5077996;28;20209;-92
2023/04/03 07:01:35;;;;;;;5.13;2.70;;;;;;;;;;5077119;28;20235;-92
2023/04/03 07:04:02;;;;;;;9.53;2.70;;;;;;;;;;5078424;28;20300;-93
2023/04/03 07:06:30;;;;;;;5.37;2.70;;;;;;;;;;5076157;28;20775;-93
2023/04/03 07:08:57;;;;;;;2.60;2.40;;;;;;;;;;5076528;28;20291;-92
2023/04/03 07:11:26;;;;;;;3.60;2.93;;;;;;;;;;5076119;28;20704;-93
2023/04/03 07:13:53;;;;;;;4.50;2.80;;;;;;;;;;5076158;28;20267;-92
2023/04/03 07:16:30;;;;;;;5.93;2.80;;;;;;;;;;5075791;28;20237;-93
2023/04/03 07:18:57;;;;;;;3.13;2.60;;;;;;;;;;5076652;28;20303;-92
2023/04/03 07:21:24;;;;;;;5.37;3.20;;;;;;;;;;5076256;28;20229;-93
2023/04/03 07:23:51;;;;;;;5.43;2.63;;;;;;;;;;5077312;28;20217;-93
2023/04/03 07:26:20;;;;;;;3.07;2.67;;;;;;;;;;5076004;28;20240;-90
2023/04/03 07:28:48;;;;;;;2.77;2.40;;;;;;;;;;5076725;28;20686;-91
2023/04/03 07:31:23;;;;;;;2.70;2.50;;;;;;;;;;5075959;28;20291;-91
2023/04/03 07:33:52;;;;;;;3.87;2.73;;;;;;;;;;5075863;28;20267;-90
2023/04/03 07:36:20;;;;;;;4.63;2.77;;;;;;;;;;5075216;28;20257;-90
2023/04/03 07:38:47;;;;;;;3.60;2.40;;;;;;;;;;5076578;28;20209;-90
2023/04/03 07:41:17;;;;;;;2.40;2.10;;;;;;;;;;5074876;28;20256;-91
2023/04/03 07:43:44;;;;;;;3.47;2.73;;;;;;;;;;5075697;28;20233;-90
2023/04/03 07:46:12;;;;;;;4.57;2.30;;;;;;;;;;5075479;28;20241;-90
2023/04/03 07:48:39;;;;;;;3.20;2.30;;;;;;;;;;5076052;28;20211;-91
2023/04/03 07:51:07;;;;;;;4.80;2.20;;;;;;;;;;5075791;28;20210;-91
2023/04/03 07:53:35;;;;;;;2.43;2.10;;;;;;;;;;5075476;28;20218;-90
2023/04/03 07:56:02;;;;;;;2.77;2.33;;;;;;;;;;5074929;28;20221;-91
2023/04/03 07:58:30;;;;;;;2.13;2.00;;;;;;;;;;5075680;28;20616;-90
2023/04/03 08:00:57;;;;;;;2.70;2.10;;;;;;;;;;5074539;28;20213;-90
2023/04/03 08:03:24;;;;;;;2.43;2.10;;;;;;;;;;5075124;28;20259;-90
2023/04/03 08:05:53;;;;;;;2.30;2.10;;;;;;;;;;5075077;28;20630;-89
2023/04/03 08:08:22;;;;;;;3.63;2.20;;;;;;;;;;5075627;28;20299;-91
2023/04/03 08:10:50;;;;;;;3.10;2.30;;;;;;;;;;5075620;28;20209;-91
2023/04/03 08:13:18;;;;;;;2.30;2.10;;;;;;;;;;5074666;28;20248;-91
2023/04/03 08:15:45;;;;;;;4.87;2.13;;;;;;;;;;5075164;28;20229;-91
2023/04/03 08:18:12;;;;;;;3.73;1.90;;;;;;;;;;5074254;28;20241;-91
2023/04/03 08:20:40;;;;;;;3.47;2.23;;;;;;;;;;5074819;28;20224;-91
2023/04/03 08:23:07;;;;;;;4.33;1.90;;;;;;;;;;5081015;28;20236;-91
2023/04/03 08:25:38;;;;;;;2.90;1.97;;;;;;;;;;5075638;28;20709;-92
2023/04/03 08:28:06;;;;;;;2.77;2.00;;;;;;;;;;5074819;28;20721;-91
2023/04/03 08:30:33;;;;;;;3.67;2.13;;;;;;;;;;5075093;28;20213;-91
2023/04/03 08:33:02;;;;;;;2.67;2.20;;;;;;;;;;5073720;28;20697;-91
2023/04/03 08:35:29;;;;;;;3.07;2.00;;;;;;;;;;5075010;28;20249;-91
2023/04/03 08:37:56;;;;;;;3.10;2.10;;;;;;;;;;5074650;28;20348;-91
2023/04/03 08:40:23;;;;;;;2.93;1.90;;;;;;;;;;5075201;28;20205;-91
2023/04/03 08:42:55;;;;;;;3.20;2.20;;;;;;;;;;5073893;28;20233;-91
2023/04/03 08:45:45;;;;;;;3.10;2.00;;;;;;;;;;5070218;28;20596;-91
2023/04/03 08:48:16;;;;;;;5.30;2.33;;;;;;;;;;5074138;28;20728;-91
2023/04/03 08:50:53;;;;;;;3.70;1.93;;;;;;;;;;5074113;28;20205;-91
2023/04/03 08:53:32;;;;;;;3.37;2.20;;;;;;;;;;5073622;28;20260;-91
2023/04/03 08:56:00;;;;;;;2.10;1.90;;;;;;;;;;5073523;28;20250;-91
2023/04/03 08:58:29;;;;;;;5.00;2.27;;;;;;;;;;5074172;28;20201;-91
2023/04/03 09:00:59;;;;;;;4.37;2.13;;;;;;;;;;5074393;28;20252;-90
2023/04/03 09:03:26;;;;;;;2.90;1.77;;;;;;;;;;5073998;28;20216;-91
2023/04/03 09:06:03;;;;;;;1.80;1.70;;;;;;;;;;5073604;28;20575;-91
2023/04/03 09:08:31;;;;;;;1.80;1.70;;;;;;;;;;5073994;28;20205;-91
2023/04/03 09:11:08;;;;;;;1.70;1.60;;;;;;;;;;5073449;28;20205;-91
2023/04/03 09:13:40;;;;;;;2.27;2.00;;;;;;;;;;5073525;28;20200;-91
2023/04/03 09:16:17;;;;;;;3.97;1.97;;;;;;;;;;5073042;28;20220;-92
2023/04/03 09:18:47;;;;;;;3.53;1.63;;;;;;;;;;5073789;28;20234;-90
2023/04/03 09:21:18;;;;;;;1.70;1.60;;;;;;;;;;5073217;28;20248;-91
2023/04/03 09:23:47;;;;;;;1.77;1.60;;;;;;;;;;5073568;28;20240;-92
2023/04/03 09:26:22;;;;;;;1.90;1.60;;;;;;;;;;5073220;28;20236;-91
2023/04/03 09:28:51;;;;;;;1.60;1.50;;;;;;;;;;5074201;28;20382;-91
2023/04/03 09:31:21;;;;;;;3.27;1.80;;;;;;;;;;5073548;28;20233;-91
2023/04/03 09:33:51;;;;;;;5.53;1.77;;;;;;;;;;5074169;28;20259;-91
2023/04/03 09:36:33;;;;;;;2.37;2.07;;;;;;;;;;5073221;28;20233;-91
2023/04/03 09:39:05;;;;;;;2.90;1.97;;;;;;;;;;5073632;28;20680;-90
2023/04/03 09:41:33;;;;;;;2.63;1.90;;;;;;;;;;5073258;28;20670;-90
2023/04/03 09:44:02;;;;;;;2.93;2.00;;;;;;;;;;5073544;28;20866;-91
2023/04/03 09:46:32;;;;;;;3.17;2.07;;;;;;;;;;5073002;28;20249;-91
2023/04/03 09:49:03;;;;;;;2.87;1.60;;;;;;;;;;5073727;28;20244;-90
2023/04/03 09:51:30;;;;;;;4.27;2.67;;;;;;;;;;5073456;28;20225;-92
2023/04/03 09:53:58;;;;;;;3.83;2.20;;;;;;;;;;5074008;28;20229;-93
2023/04/03 09:56:26;;;;;;;2.80;1.80;;;;;;;;;;5073483;28;20237;-93
2023/04/03 09:59:07;;;;;;;3.27;1.83;;;;;;;;;;5073452;28;20560;-91
2023/04/03 10:01:36;;;;;;;3.30;1.80;;;;;;;;;;5073271;28;20228;-91
2023/04/03 10:04:05;;;;;;;2.50;1.57;;;;;;;;;;5074110;28;20217;-91
2023/04/03 10:06:35;;;;;;;3.37;1.90;;;;;;;;;;5072909;28;20229;-92
2023/04/03 10:09:04;;;;;;;2.83;1.50;;;;;;;;;;5073328;28;20205;-90
2023/04/03 10:11:31;;;;;;;4.17;1.73;;;;;;;;;;5072762;28;20237;-93
2023/04/03 10:14:00;;;;;;;3.30;1.80;;;;;;;;;;5074021;28;20238;-91
2023/04/03 10:16:28;;;;;;;3.87;1.67;;;;;;;;;;5073315;28;20701;-91
2023/04/03 10:19:04;;;;;;;1.77;1.50;;;;;;;;;;5073507;28;20621;-91
2023/04/03 10:21:36;;;;;;;3.30;1.90;;;;;;;;;;5075969;28;20715;-90
2023/04/03 10:24:08;;;;;;;3.60;1.90;;;;;;;;;;5093082;28;20232;-89
2023/04/03 10:26:38;;;;;;;3.60;1.90;;;;;;;;;;5090588;28;20232;-89
2023/04/03 10:29:12;;;;;;;1.70;1.60;;;;;;;;;;5076987;28;20193;-91
2023/04/03 10:31:42;;;;;;;2.67;1.77;;;;;;;;;;5076180;28;20229;-91
2023/04/03 10:34:15;;;;;;;3.40;1.53;;;;;;;;;;5076295;28;20228;-90
2023/04/03 10:36:44;;;;;;;3.17;1.70;;;;;;;;;;5076655;28;20237;-91
2023/04/03 10:39:24;;;;;;;2.30;2.10;;;;;;;;;;5076819;28;20197;-90
2023/04/03 10:42:02;;;;;;;2.77;1.97;;;;;;;;;;5076423;28;20271;-90
2023/04/03 10:44:33;;;;;;;1.93;1.60;;;;;;;;;;5076517;28;20225;-92
2023/04/03 10:47:03;;;;;;;1.83;1.73;;;;;;;;;;5076335;28;20236;-92
2023/04/03 10:49:42;;;;;;;3.30;1.90;;;;;;;;;;5076533;28;20181;-92
2023/04/03 10:52:13;;;;;;;2.90;1.97;;;;;;;;;;5075282;28;20704;-92
2023/04/03 10:54:41;;;;;;;1.80;1.70;;;;;;;;;;5076323;28;20224;-93
2023/04/03 10:57:10;;;;;;;2.87;1.80;;;;;;;;;;5076334;28;20230;-92
2023/04/03 10:59:38;;;;;;;3.77;1.87;;;;;;;;;;5077240;28;20185;-92
2023/04/03 11:02:08;;;;;;;2.60;1.77;;;;;;;;;;5076240;28;20256;-93
2023/04/03 11:04:37;;;;;;;3.73;2.10;;;;;;;;;;5076327;28;20221;-93
2023/04/03 11:07:09;;;;;;;3.60;1.90;;;;;;;;;;5075945;28;20312;-93
2023/04/03 11:09:41;;;;;;;1.93;1.80;;;;;;;;;;5064355;28;20301;-91
2023/04/03 11:12:14;;;;;;;2.40;1.70;;;;;;;;;;5061488;28;20244;-92
2023/04/03 11:14:41;;;;;;;4.20;1.90;;;;;;;;;;5076028;28;20228;-92
2023/04/03 11:17:14;;;;;;;2.00;1.80;;;;;;;;;;5075174;28;20255;-90
2023/04/03 11:19:46;;;;;;;4.07;1.60;;;;;;;;;;5074264;28;20213;-90
2023/04/03 11:22:17;;;;;;;2.13;1.60;;;;;;;;;;5074011;28;20233;-90
2023/04/03 11:24:48;;;;;;;1.60;1.50;;;;;;;;;;5074997;28;20230;-90
2023/04/03 11:27:22;;;;;;;1.10;1.10;;;;;;;;;;5075161;28;20224;-90
2023/04/03 11:29:50;;;;;;;2.67;1.60;;;;;;;;;;5074924;28;20257;-89
2023/04/03 11:32:46;;;;;;;1.47;1.37;;;;;;;;;;5074579;28;20236;-89
2023/04/03 11:35:15;;;;;;;3.67;1.50;;;;;;;;;;5075126;28;20591;-89
2023/04/03 11:37:44;;;;;;;2.20;1.60;;;;;;;;;;5078565;28;20700;-91
2023/04/03 11:40:22;;;;;;;2.83;1.35;;;;;;;;;;5075376;28;20251;-90
2023/04/03 11:42:50;;;;;;;1.60;1.50;;;;;;;;;;5074377;28;20241;-90
2023/04/03 11:45:18;;;;;;;2.92;1.52;;;;;;;;;;5075108;28;20239;-90
2023/04/03 11:47:47;;;;;;;2.70;1.60;;;;;;;;;;5074727;28;20229;-89
2023/04/03 11:50:30;;;;;;;3.20;1.45;;;;;;;;;;5075050;28;20205;-91
2023/04/03 11:52:59;;;;;;;1.25;1.25;;;;;;;;;;5074010;28;20244;-90
2023/04/03 11:55:45;;;;;;;2.75;1.70;;;;;;;;;;5075292;28;20244;-88
2023/04/03 11:58:17;;;;;;;2.47;1.50;;;;;;;;;;5074521;28;20709;-90
2023/04/03 12:00:57;;;;;;;1.30;1.20;;;;;;;;;;5075182;28;20213;-91
2023/04/03 12:03:31;;;;;;;2.42;1.55;;;;;;;;;;5074091;28;20800;-91
2023/04/03 12:06:19;;;;;;;3.55;1.42;;;;;;;;;;5073771;28;20213;-89
2023/04/03 12:08:48;;;;;;;2.17;1.42;;;;;;;;;;5074567;28;20537;-90
2023/04/03 12:11:17;;;;;;;1.73;1.40;;;;;;;;;;5055265;28;20231;-90
2023/04/03 12:14:03;;;;;;;2.20;1.55;;;;;;;;;;5074999;28;20229;-90
2023/04/03 12:16:32;;;;;;;1.83;1.33;;;;;;;;;;5080053;28;20301;-89
2023/04/03 12:19:02;;;;;;;1.73;1.35;;;;;;;;;;5080068;28;20593;-90
2023/04/03 12:21:48;;;;;;;1.35;1.25;;;;;;;;;;5074309;28;20233;-90
2023/04/03 12:24:29;;;;;;;2.70;1.95;;;;;;;;;;5083104;22;20244;-84
2023/04/03 12:27:04;;;;;;;1.30;1.17;;;;;;;;;;5043060;28;20726;-84
2023/04/03 12:29:34;;;;;;;2.42;1.35;;;;;;;;;;5032853;28;20218;-84
2023/04/03 12:32:08;;;;;;;1.40;1.30;;;;;;;;;;5031994;28;20241;-84
2023/04/03 12:34:50;;;;;;;1.42;1.33;;;;;;;;;;5019032;28;20228;-84
2023/04/03 12:37:23;;;;;;;1.75;1.20;;;;;;;;;;4992883;28;20235;-85
2023/04/03 12:39:55;;;;;;;3.25;1.60;;;;;;;;;;4993699;28;20196;-83
2023/04/03 12:42:28;;;;;;;1.85;1.17;;;;;;;;;;4997390;28;20235;-84
2023/04/03 12:45:00;;;;;;;2.72;1.40;;;;;;;;;;4997048;28;20296;-84
2023/04/03 12:47:29;;;;;;;1.67;1.33;;;;;;;;;;4992133;28;20235;-83
2023/04/03 12:49:58;;;;;;;2.75;1.55;;;;;;;;;;4993159;28;20805;-83
2023/04/03 12:52:31;;;;;;;2.67;1.35;;;;;;;;;;4992585;28;20263;-83
2023/04/03 12:55:01;;;;;;;1.52;1.30;;;;;;;;;;5023913;28;20235;-84
2023/04/03 12:57:29;;;;;;;3.63;1.60;;;;;;;;;;5011633;28;20246;-83
2023/04/03 12:59:56;;;;;;;1.70;1.42;;;;;;;;;;5003312;28;20219;-83
2023/04/03 13:02:27;;;;;;;2.65;1.42;;;;;;;;;;5024294;28;20230;-84
2023/04/03 13:04:57;;;;;;;2.30;1.40;;;;;;;;;;5049632;28;20713;-83
2023/04/03 13:07:27;;;;;;;1.35;1.20;;;;;;;;;;5038300;28;20237;-86
2023/04/03 13:10:00;;;;;;;1.35;1.00;;;;;;;;;;5031789;28;20333;-87
2023/04/03 13:12:27;;;;;;;1.65;1.30;;;;;;;;;;5031481;28;20320;-87
2023/04/03 13:14:55;;;;;;;2.53;1.10;;;;;;;;;;5008507;28;20224;-85
2023/04/03 13:17:25;;;;;;;1.40;1.30;;;;;;;;;;4991939;28;20243;-86
2023/04/03 13:19:52;;;;;;;1.60;1.27;;;;;;;;;;4992023;28;20735;-87
2023/04/03 13:22:28;;;;;;;4.00;1.20;;;;;;;;;;4992901;28;20232;-87
2023/04/03 13:24:56;;;;;;;2.13;1.10;;;;;;;;;;4996354;28;20581;-87
2023/04/03 13:27:25;;;;;;;2.28;1.40;;;;;;;;;;4997499;28;20222;-87
2023/04/03 13:29:53;;;;;;;1.38;1.27;;;;;;;;;;4996469;28;20219;-85
2023/04/03 13:32:21;;;;;;;2.53;1.50;;;;;;;;;;4991829;28;20611;-85
2023/04/03 13:34:49;;;;;;;3.13;1.38;;;;;;;;;;5020684;28;20778;-85
2023/04/03 13:37:23;;;;;;;3.05;1.73;;;;;;;;;;5030946;28;20230;-85
2023/04/03 13:39:59;;;;;;;2.03;1.38;;;;;;;;;;5031439;28;20203;-85
2023/04/03 13:42:29;;;;;;;2.38;1.33;;;;;;;;;;5031122;28;20233;-86
2023/04/03 13:45:17;;;;;;;1.55;1.45;;;;;;;;;;5031212;28;20310;-85
2023/04/03 13:47:46;;;;;;;1.67;1.38;;;;;;;;;;5031029;28;20724;-84
2023/04/03 13:50:17;;;;;;;2.00;1.48;;;;;;;;;;5031477;28;20225;-85
2023/04/03 13:52:45;;;;;;;1.20;1.20;;;;;;;;;;5030812;28;20237;-84
2023/04/03 13:55:20;;;;;;;0.90;0.90;;;;;;;;;;5031398;28;20206;-84
2023/04/03 13:57:52;;;;;;;1.40;1.23;;;;;;;;;;5030633;28;20236;-85
2023/04/03 14:00:39;;;;;;;2.10;1.20;;;;;;;;;;5035298;28;20230;-84
2023/04/03 14:03:14;;;;;;;1.40;1.20;;;;;;;;;;5034671;28;20243;-84
2023/04/03 14:05:41;;;;;;;1.55;1.20;;;;;;;;;;5035773;28;20206;-84
2023/04/03 14:08:09;;;;;;;1.67;1.23;;;;;;;;;;5035598;28;20227;-84
2023/04/03 14:10:36;;;;;;;1.52;1.23;;;;;;;;;;5035606;28;20242;-85
2023/04/03 14:13:05;;;;;;;2.42;1.20;;;;;;;;;;5034646;28;20249;-85
2023/04/03 14:15:32;;;;;;;4.93;1.30;;;;;;;;;;5034883;28;20207;-85
2023/04/03 14:18:00;;;;;;;1.20;1.10;;;;;;;;;;5034695;28;20733;-85
2023/04/03 14:20:28;;;;;;;1.30;1.02;;;;;;;;;;5035456;28;20261;-85
2023/04/03 14:22:55;;;;;;;2.60;1.30;;;;;;;;;;5030886;28;20234;-85
2023/04/03 14:25:23;;;;;;;0.98;0.93;;;;;;;;;;5027603;28;20206;-86
2023/04/03 14:27:52;;;;;;;1.58;1.48;;;;;;;;;;5034467;28;20286;-86
2023/04/03 14:30:22;;;;;;;1.63;1.30;;;;;;;;;;5033855;28;20203;-87
2023/04/03 14:32:49;;;;;;;1.58;1.40;;;;;;;;;;5014559;28;20244;-85
2023/04/03 14:35:17;;;;;;;1.98;1.33;;;;;;;;;;5015198;28;20211;-86
2023/04/03 14:37:44;;;;;;;3.63;1.33;;;;;;;;;;5014622;28;20231;-86
2023/04/03 14:40:14;;;;;;;1.63;1.45;;;;;;;;;;5015130;28;20683;-85
2023/04/03 14:42:41;;;;;;;1.77;1.67;;;;;;;;;;5014047;28;20741;-86
2023/04/03 14:45:10;;;;;;;2.03;1.40;;;;;;;;;;5015077;28;20219;-86
2023/04/03 14:47:41;;;;;;;2.15;1.30;;;;;;;;;;5014379;28;20235;-86
2023/04/03 14:50:09;;;;;;;2.33;1.40;;;;;;;;;;5015085;28;20246;-86
2023/04/03 14:52:37;;;;;;;1.75;1.48;;;;;;;;;;5014282;28;20730;-86
2023/04/03 14:55:06;;;;;;;1.45;1.20;;;;;;;;;;5014744;28;20627;-86